sensor_id;sensor_type;location;lat;lon;timestamp;temperature;humidity
47921;DHT22;33686;48.770;9.186;2023-02-28T06:17:21;-1.30;99.90
47921;DHT22;33686;48.770;9.186;2023-02-28T06:19:47;-1.20;99.90
47921;DHT22;33686;48.770;9.186;2023-02-28T06:22:13;-1.30;99.90
47921;DHT22;33686;48.770;9.186;2023-02-28T06:24:38;-1.30;99.90
47921;DHT22;33686;48.770;9.186;2023-02-28T06:27:04;-1.20;99.90
47921;DHT22;33686;48.770;9.186;2023-02-28T06:29:33;-1.20;99.90
47921;DHT22;33686;48.770;9.186;2023-02-28T06:31:59;-1.30;99.90
47921;DHT22;33686;48.770;9.186;2023-02-28T06:34:25;-1.20;99.90
47921;DHT22;33686;48.770;9.186;2023-02-28T06:36:51;-1.20;99.90
47921;DHT22;33686;48.770;9.186;2023-02-28T06:39:17;-1.10;99.90
47921;DHT22;33686;48.770;9.186;2023-02-28T06:41:42;-1.10;99.90
47921;DHT22;33686;48.770;9.186;2023-02-28T06:44:14;-1.10;99.90
47921;DHT22;33686;48.770;9.186;2023-02-28T06:46:40;-1.00;99.90
47921;DHT22;33686;48.770;9.186;2023-02-28T06:49:06;-1.00;99.90
47921;DHT22;33686;48.770;9.186;2023-02-28T06:51:34;-1.10;99.90
47921;DHT22;33686;48.770;9.186;2023-02-28T06:54:00;-1.00;99.90
47921;DHT22;33686;48.770;9.186;2023-02-28T06:56:26;-1.00;99.90
47921;DHT22;33686;48.770;9.186;2023-02-28T06:58:51;-1.00;99.90
47921;DHT22;33686;48.770;9.186;2023-02-28T07:01:18;-1.00;99.90
47921;DHT22;33686;48.770;9.186;2023-02-28T07:03:44;-0.90;99.90
47921;DHT22;33686;48.770;9.186;2023-02-28T07:06:09;-0.90;99.90
47921;DHT22;33686;48.770;9.186;2023-02-28T07:08:35;-0.80;99.90
47921;DHT22;33686;48.770;9.186;2023-02-28T07:11:01;-0.80;99.90
47921;DHT22;33686;48.770;9.186;2023-02-28T07:13:27;-0.80;99.90
47921;DHT22;33686;48.770;9.186;2023-02-28T07:15:53;-0.80;99.90
47921;DHT22;33686;48.770;9.186;2023-02-28T07:18:19;-0.90;99.90
47921;DHT22;33686;48.770;9.186;2023-02-28T07:20:44;-0.80;99.90
47921;DHT22;33686;48.770;9.186;2023-02-28T07:23:10;-0.70;99.90
47921;DHT22;33686;48.770;9.186;2023-02-28T07:25:35;-0.80;99.90
47921;DHT22;33686;48.770;9.186;2023-02-28T07:28:01;-0.80;99.90
47921;DHT22;33686;48.770;9.186;2023-02-28T07:30:26;-0.70;99.90
47921;DHT22;33686;48.770;9.186;2023-02-28T07:32:52;-0.70;99.90
47921;DHT22;33686;48.770;9.186;2023-02-28T07:35:20;-0.80;99.90
47921;DHT22;33686;48.770;9.186;2023-02-28T07:37:45;-0.80;99.90
47921;DHT22;33686;48.770;9.186;2023-02-28T07:40:12;-0.70;99.90
47921;DHT22;33686;48.770;9.186;2023-02-28T07:42:39;-0.80;99.90
47921;DHT22;33686;48.770;9.186;2023-02-28T07:45:05;-0.70;99.90
47921;DHT22;33686;48.770;9.186;2023-02-28T07:47:30;-0.70;99.90
47921;DHT22;33686;48.770;9.186;2023-02-28T07:49:56;-0.80;99.90
47921;DHT22;33686;48.770;9.186;2023-02-28T07:52:21;-0.70;99.90
47921;DHT22;33686;48.770;9.186;2023-02-28T07:54:49;-0.60;99.90
47921;DHT22;33686;48.770;9.186;2023-02-28T07:57:14;-0.60;99.90
47921;DHT22;33686;48.770;9.186;2023-02-28T07:59:40;-0.60;99.90
47921;DHT22;33686;48.770;9.186;2023-02-28T08:02:05;-0.60;99.90
47921;DHT22;33686;48.770;9.186;2023-02-28T08:04:31;-0.60;99.90
47921;DHT22;33686;48.770;9.186;2023-02-28T08:06:57;-0.60;99.90
47921;DHT22;33686;48.770;9.186;2023-02-28T08:09:23;-0.60;99.90
47921;DHT22;33686;48.770;9.186;2023-02-28T08:11:48;-0.60;99.90
47921;DHT22;33686;48.770;9.186;2023-02-28T08:14:14;-0.50;99.90
47921;DHT22;33686;48.770;9.186;2023-02-28T08:16:39;-0.60;99.90
47921;DHT22;33686;48.770;9.186;2023-02-28T08:19:05;-0.50;99.90
47921;DHT22;33686;48.770;9.186;2023-02-28T08:21:31;-0.40;99.90
47921;DHT22;33686;48.770;9.186;2023-02-28T08:23:56;-0.50;99.90
47921;DHT22;33686;48.770;9.186;2023-02-28T08:26:22;-0.60;99.90
47921;DHT22;33686;48.770;9.186;2023-02-28T08:28:48;-0.50;99.90
47921;DHT22;33686;48.770;9.186;2023-02-28T08:31:14;-0.60;99.90
47921;DHT22;33686;48.770;9.186;2023-02-28T08:33:40;-0.50;99.90
47921;DHT22;33686;48.770;9.186;2023-02-28T08:36:07;-0.50;99.90
47921;DHT22;33686;48.770;9.186;2023-02-28T08:38:33;-0.40;99.90
47921;DHT22;33686;48.770;9.186;2023-02-28T08:40:59;-0.40;99.90
47921;DHT22;33686;48.770;9.186;2023-02-28T08:43:25;-0.40;99.90
47921;DHT22;33686;48.770;9.186;2023-02-28T08:45:54;-0.40;99.90
47921;DHT22;33686;48.770;9.186;2023-02-28T08:48:25;-0.20;99.90
47921;DHT22;33686;48.770;9.186;2023-02-28T08:50:58;-0.20;99.90
47921;DHT22;33686;48.770;9.186;2023-02-28T08:53:23;-0.20;99.90
47921;DHT22;33686;48.770;9.186;2023-02-28T08:56:03;-0.20;99.90
47921;DHT22;33686;48.770;9.186;2023-02-28T08:58:29;-0.30;99.90
47921;DHT22;33686;48.770;9.186;2023-02-28T09:00:54;-0.30;99.90
47921;DHT22;33686;48.770;9.186;2023-02-28T09:03:20;-0.30;99.90
47921;DHT22;33686;48.770;9.186;2023-02-28T09:05:56;-0.20;99.90
47921;DHT22;33686;48.770;9.186;2023-02-28T09:08:23;-0.30;99.90
47921;DHT22;33686;48.770;9.186;2023-02-28T09:10:49;-0.10;99.90
47921;DHT22;33686;48.770;9.186;2023-02-28T09:13:15;-0.20;99.90
47921;DHT22;33686;48.770;9.186;2023-02-28T09:15:40;-0.10;99.90
47921;DHT22;33686;48.770;9.186;2023-02-28T09:18:06;-0.10;99.90
47921;DHT22;33686;48.770;9.186;2023-02-28T09:20:31;0.00;99.90
47921;DHT22;33686;48.770;9.186;2023-02-28T09:22:57;0.10;99.90
47921;DHT22;33686;48.770;9.186;2023-02-28T09:25:22;-0.10;99.90
47921;DHT22;33686;48.770;9.186;2023-02-28T09:27:48;0.00;99.90
47921;DHT22;33686;48.770;9.186;2023-02-28T09:30:14;0.10;99.90
47921;DHT22;33686;48.770;9.186;2023-02-28T09:32:39;0.10;99.90
47921;DHT22;33686;48.770;9.186;2023-02-28T09:35:05;0.20;99.90
47921;DHT22;33686;48.770;9.186;2023-02-28T09:37:31;0.20;99.90
47921;DHT22;33686;48.770;9.186;2023-02-28T09:39:56;0.10;99.90
47921;DHT22;33686;48.770;9.186;2023-02-28T09:42:24;0.10;99.90
47921;DHT22;33686;48.770;9.186;2023-02-28T09:44:53;0.20;99.90
47921;DHT22;33686;48.770;9.186;2023-02-28T09:49:52;0.30;99.90
47921;DHT22;33686;48.770;9.186;2023-02-28T09:52:18;0.30;99.90
47921;DHT22;33686;48.770;9.186;2023-02-28T09:54:44;0.40;99.90
47921;DHT22;33686;48.770;9.186;2023-02-28T09:57:17;0.50;99.90
47921;DHT22;33686;48.770;9.186;2023-02-28T10:05:00;0.30;99.90
47921;DHT22;33686;48.770;9.186;2023-02-28T10:07:37;0.40;99.90
47921;DHT22;33686;48.770;9.186;2023-02-28T10:10:27;0.40;99.90
47921;DHT22;33686;48.770;9.186;2023-02-28T10:12:56;0.60;99.90
47921;DHT22;33686;48.770;9.186;2023-02-28T10:15:24;0.70;99.90
47921;DHT22;33686;48.770;9.186;2023-02-28T10:17:56;0.60;99.90
47921;DHT22;33686;48.770;9.186;2023-02-28T10:20:23;0.90;99.90
47921;DHT22;33686;48.770;9.186;2023-02-28T10:25:21;0.80;99.90
47921;DHT22;33686;48.770;9.186;2023-02-28T10:27:47;1.10;99.90
47921;DHT22;33686;48.770;9.186;2023-02-28T10:30:13;1.30;99.90
47921;DHT22;33686;48.770;9.186;2023-02-28T10:32:44;1.30;99.90
47921;DHT22;33686;48.770;9.186;2023-02-28T10:35:20;1.40;99.90
47921;DHT22;33686;48.770;9.186;2023-02-28T10:37:47;1.50;99.90
47921;DHT22;33686;48.770;9.186;2023-02-28T10:42:41;1.40;99.90
47921;DHT22;33686;48.770;9.186;2023-02-28T10:47:33;1.70;99.90
47921;DHT22;33686;48.770;9.186;2023-02-28T10:49:59;1.70;99.90
47921;DHT22;33686;48.770;9.186;2023-02-28T10:52:37;1.90;99.90
47921;DHT22;33686;48.770;9.186;2023-02-28T10:55:14;1.70;99.90
47921;DHT22;33686;48.770;9.186;2023-02-28T10:57:40;1.50;99.90
47921;DHT22;33686;48.770;9.186;2023-02-28T11:00:23;1.50;99.90
47921;DHT22;33686;48.770;9.186;2023-02-28T11:02:50;1.30;99.90
47921;DHT22;33686;48.770;9.186;2023-02-28T11:05:23;1.50;99.90
47921;DHT22;33686;48.770;9.186;2023-02-28T11:08:32;1.70;99.90
47921;DHT22;33686;48.770;9.186;2023-02-28T11:10:39;1.50;99.90
47921;DHT22;33686;48.770;9.186;2023-02-28T11:13:05;1.40;99.90
47921;DHT22;33686;48.770;9.186;2023-02-28T11:15:32;1.50;99.90
47921;DHT22;33686;48.770;9.186;2023-02-28T11:18:02;1.80;99.90
47921;DHT22;33686;48.770;9.186;2023-02-28T11:20:30;2.10;99.90
47921;DHT22;33686;48.770;9.186;2023-02-28T11:22:58;2.20;99.90
47921;DHT22;33686;48.770;9.186;2023-02-28T11:25:26;2.10;99.90
47921;DHT22;33686;48.770;9.186;2023-02-28T11:27:52;2.20;99.90
47921;DHT22;33686;48.770;9.186;2023-02-28T11:32:50;2.30;99.90
47921;DHT22;33686;48.770;9.186;2023-02-28T11:35:30;2.40;99.90
47921;DHT22;33686;48.770;9.186;2023-02-28T11:37:56;2.30;99.90
47921;DHT22;33686;48.770;9.186;2023-02-28T11:40:36;2.20;99.90
47921;DHT22;33686;48.770;9.186;2023-02-28T11:43:18;2.30;99.90
47921;DHT22;33686;48.770;9.186;2023-02-28T11:45:54;2.50;99.90
47921;DHT22;33686;48.770;9.186;2023-02-28T11:48:23;2.70;99.90
47921;DHT22;33686;48.770;9.186;2023-02-28T11:56:18;2.50;99.90
47921;DHT22;33686;48.770;9.186;2023-02-28T11:58:48;2.60;99.90
47921;DHT22;33686;48.770;9.186;2023-02-28T12:03:54;2.50;99.90
47921;DHT22;33686;48.770;9.186;2023-02-28T12:09:20;2.70;99.90
47921;DHT22;33686;48.770;9.186;2023-02-28T12:11:52;2.70;99.90
47921;DHT22;33686;48.770;9.186;2023-02-28T12:14:23;2.50;99.90
47921;DHT22;33686;48.770;9.186;2023-02-28T12:16:58;2.60;99.90
47921;DHT22;33686;48.770;9.186;2023-02-28T12:19:29;2.90;99.90
47921;DHT22;33686;48.770;9.186;2023-02-28T12:25:18;2.90;99.90
47921;DHT22;33686;48.770;9.186;2023-02-28T12:27:46;3.10;99.90
47921;DHT22;33686;48.770;9.186;2023-02-28T12:30:31;3.10;99.90
47921;DHT22;33686;48.770;9.186;2023-02-28T12:33:01;2.90;99.90
47921;DHT22;33686;48.770;9.186;2023-02-28T12:35:34;2.90;99.90
47921;DHT22;33686;48.770;9.186;2023-02-28T12:38:04;2.90;99.90
47921;DHT22;33686;48.770;9.186;2023-02-28T12:40:41;2.90;99.90
47921;DHT22;33686;48.770;9.186;2023-02-28T12:43:08;3.00;99.90
47921;DHT22;33686;48.770;9.186;2023-02-28T12:45:50;3.20;99.90
47921;DHT22;33686;48.770;9.186;2023-02-28T12:48:21;3.20;99.90
47921;DHT22;33686;48.770;9.186;2023-02-28T12:50:49;3.30;99.90
47921;DHT22;33686;48.770;9.186;2023-02-28T12:55:46;3.40;99.90
47921;DHT22;33686;48.770;9.186;2023-02-28T13:04:03;3.40;99.90
47921;DHT22;33686;48.770;9.186;2023-02-28T13:09:02;3.50;99.90
47921;DHT22;33686;48.770;9.186;2023-02-28T13:14:37;3.60;99.90
47921;DHT22;33686;48.770;9.186;2023-02-28T13:16:57;3.60;99.90
47921;DHT22;33686;48.770;9.186;2023-02-28T13:19:24;3.90;99.90
47921;DHT22;33686;48.770;9.186;2023-02-28T13:21:50;4.00;99.90
47921;DHT22;33686;48.770;9.186;2023-02-28T13:29:39;4.00;99.90
47921;DHT22;33686;48.770;9.186;2023-02-28T13:34:31;4.00;99.90
47921;DHT22;33686;48.770;9.186;2023-02-28T13:47:30;4.30;99.90
47921;DHT22;33686;48.770;9.186;2023-02-28T13:52:46;4.40;99.90
47921;DHT22;33686;48.770;9.186;2023-02-28T13:55:18;4.40;99.90
47921;DHT22;33686;48.770;9.186;2023-02-28T14:00:41;4.60;99.90
47921;DHT22;33686;48.770;9.186;2023-02-28T14:08:37;4.70;99.90
47921;DHT22;33686;48.770;9.186;2023-02-28T14:11:04;4.70;99.90
47921;DHT22;33686;48.770;9.186;2023-02-28T14:13:37;4.60;99.90
47921;DHT22;33686;48.770;9.186;2023-02-28T14:16:09;4.60;99.90
47921;DHT22;33686;48.770;9.186;2023-02-28T14:18:36;4.70;99.90
47921;DHT22;33686;48.770;9.186;2023-02-28T14:21:08;4.70;99.90
47921;DHT22;33686;48.770;9.186;2023-02-28T14:23:38;4.60;99.90
47921;DHT22;33686;48.770;9.186;2023-02-28T14:26:10;4.60;99.90
47921;DHT22;33686;48.770;9.186;2023-02-28T14:31:23;4.60;99.90
47921;DHT22;33686;48.770;9.186;2023-02-28T14:34:05;4.60;99.90
47921;DHT22;33686;48.770;9.186;2023-02-28T14:36:39;4.60;99.90
47921;DHT22;33686;48.770;9.186;2023-02-28T14:39:07;4.70;99.90
47921;DHT22;33686;48.770;9.186;2023-02-28T14:41:37;4.60;99.90
47921;DHT22;33686;48.770;9.186;2023-02-28T14:44:14;4.70;99.90
47921;DHT22;33686;48.770;9.186;2023-02-28T14:46:40;4.80;99.90
47921;DHT22;33686;48.770;9.186;2023-02-28T14:49:12;4.80;99.90
47921;DHT22;33686;48.770;9.186;2023-02-28T14:51:38;4.80;99.90
47921;DHT22;33686;48.770;9.186;2023-02-28T14:54:04;4.70;99.90
47921;DHT22;33686;48.770;9.186;2023-02-28T14:56:32;4.80;99.90
47921;DHT22;33686;48.770;9.186;2023-02-28T14:58:58;4.80;99.90
47921;DHT22;33686;48.770;9.186;2023-02-28T15:01:25;4.80;99.90
47921;DHT22;33686;48.770;9.186;2023-02-28T15:04:00;4.70;99.90
47921;DHT22;33686;48.770;9.186;2023-02-28T15:06:28;4.60;99.90
47921;DHT22;33686;48.770;9.186;2023-02-28T15:09:07;4.70;99.90
47921;DHT22;33686;48.770;9.186;2023-02-28T15:11:33;4.70;99.90
47921;DHT22;33686;48.770;9.186;2023-02-28T15:13:58;4.70;99.90
47921;DHT22;33686;48.770;9.186;2023-02-28T15:16:26;4.70;99.90
47921;DHT22;33686;48.770;9.186;2023-02-28T15:18:59;4.60;99.90
47921;DHT22;33686;48.770;9.186;2023-02-28T15:21:29;4.60;99.90
47921;DHT22;33686;48.770;9.186;2023-02-28T15:23:59;4.70;99.90
47921;DHT22;33686;48.770;9.186;2023-02-28T15:26:30;4.70;99.90
47921;DHT22;33686;48.770;9.186;2023-02-28T15:29:15;4.80;99.90
47921;DHT22;33686;48.770;9.186;2023-02-28T15:31:43;4.80;99.90
47921;DHT22;33686;48.770;9.186;2023-02-28T15:34:19;4.80;99.90
47921;DHT22;33686;48.770;9.186;2023-02-28T15:36:45;4.80;99.90
47921;DHT22;33686;48.770;9.186;2023-02-28T15:39:21;4.70;99.90
47921;DHT22;33686;48.770;9.186;2023-02-28T15:41:48;4.80;99.90
47921;DHT22;33686;48.770;9.186;2023-02-28T15:46:41;4.70;99.90
47921;DHT22;33686;48.770;9.186;2023-02-28T15:49:18;4.80;99.90
47921;DHT22;33686;48.770;9.186;2023-02-28T15:51:44;4.70;99.90
47921;DHT22;33686;48.770;9.186;2023-02-28T15:54:14;4.60;99.90
47921;DHT22;33686;48.770;9.186;2023-02-28T15:56:45;4.60;99.90
47921;DHT22;33686;48.770;9.186;2023-02-28T15:59:15;4.60;99.90
47921;DHT22;33686;48.770;9.186;2023-02-28T16:01:41;4.50;99.90
47921;DHT22;33686;48.770;9.186;2023-02-28T16:04:17;4.50;99.90
47921;DHT22;33686;48.770;9.186;2023-02-28T16:06:44;4.40;99.90
47921;DHT22;33686;48.770;9.186;2023-02-28T16:09:13;4.30;99.90
47921;DHT22;33686;48.770;9.186;2023-02-28T16:11:47;4.40;99.90
47921;DHT22;33686;48.770;9.186;2023-02-28T16:14:14;4.30;99.90
47921;DHT22;33686;48.770;9.186;2023-02-28T16:16:43;4.30;99.90
47921;DHT22;33686;48.770;9.186;2023-02-28T16:19:09;4.30;99.90
47921;DHT22;33686;48.770;9.186;2023-02-28T16:21:35;4.30;99.90
47921;DHT22;33686;48.770;9.186;2023-02-28T16:24:00;4.20;99.90
47921;DHT22;33686;48.770;9.186;2023-02-28T16:26:26;4.20;99.90
47921;DHT22;33686;48.770;9.186;2023-02-28T16:28:53;4.20;99.90
47921;DHT22;33686;48.770;9.186;2023-02-28T16:31:19;4.10;99.90
47921;DHT22;33686;48.770;9.186;2023-02-28T16:33:45;4.10;99.90
47921;DHT22;33686;48.770;9.186;2023-02-28T16:36:15;4.10;99.90
47921;DHT22;33686;48.770;9.186;2023-02-28T16:38:40;4.10;99.90
47921;DHT22;33686;48.770;9.186;2023-02-28T16:41:06;4.00;99.90
47921;DHT22;33686;48.770;9.186;2023-02-28T16:43:31;4.00;99.90
47921;DHT22;33686;48.770;9.186;2023-02-28T16:45:57;3.90;99.90
47921;DHT22;33686;48.770;9.186;2023-02-28T16:48:28;3.90;99.90
47921;DHT22;33686;48.770;9.186;2023-02-28T16:50:54;3.90;99.90
47921;DHT22;33686;48.770;9.186;2023-02-28T16:53:20;3.80;99.90
47921;DHT22;33686;48.770;9.186;2023-02-28T16:55:46;3.70;99.90
47921;DHT22;33686;48.770;9.186;2023-02-28T16:58:15;3.70;99.90
47921;DHT22;33686;48.770;9.186;2023-02-28T17:00:41;3.70;99.90
47921;DHT22;33686;48.770;9.186;2023-02-28T17:03:21;3.70;99.90
47921;DHT22;33686;48.770;9.186;2023-02-28T17:05:47;3.70;99.90
47921;DHT22;33686;48.770;9.186;2023-02-28T17:08:13;3.60;99.90
47921;DHT22;33686;48.770;9.186;2023-02-28T17:10:38;3.50;99.90
47921;DHT22;33686;48.770;9.186;2023-02-28T17:13:04;3.50;99.90
47921;DHT22;33686;48.770;9.186;2023-02-28T17:15:33;3.50;99.90
47921;DHT22;33686;48.770;9.186;2023-02-28T17:17:58;3.40;99.90
47921;DHT22;33686;48.770;9.186;2023-02-28T17:20:24;3.30;99.90
47921;DHT22;33686;48.770;9.186;2023-02-28T17:22:52;3.20;99.90
47921;DHT22;33686;48.770;9.186;2023-02-28T17:25:17;3.30;99.90
47921;DHT22;33686;48.770;9.186;2023-02-28T17:27:43;3.20;99.90
47921;DHT22;33686;48.770;9.186;2023-02-28T17:32:41;3.10;99.90
47921;DHT22;33686;48.770;9.186;2023-02-28T17:35:06;3.00;99.90
47921;DHT22;33686;48.770;9.186;2023-02-28T17:37:32;3.00;99.90
47921;DHT22;33686;48.770;9.186;2023-02-28T17:39:58;3.00;99.90
47921;DHT22;33686;48.770;9.186;2023-02-28T17:42:23;3.10;99.90
47921;DHT22;33686;48.770;9.186;2023-02-28T17:44:49;3.00;99.90
47921;DHT22;33686;48.770;9.186;2023-02-28T17:47:14;2.90;99.90
47921;DHT22;33686;48.770;9.186;2023-02-28T17:49:40;2.90;99.90
47921;DHT22;33686;48.770;9.186;2023-02-28T17:52:05;2.80;99.90
47921;DHT22;33686;48.770;9.186;2023-02-28T17:54:31;2.70;99.90
47921;DHT22;33686;48.770;9.186;2023-02-28T17:56:56;2.70;99.90
47921;DHT22;33686;48.770;9.186;2023-02-28T17:59:22;2.70;99.90
47921;DHT22;33686;48.770;9.186;2023-02-28T18:01:47;2.70;99.90
47921;DHT22;33686;48.770;9.186;2023-02-28T18:04:13;2.60;99.90
47921;DHT22;33686;48.770;9.186;2023-02-28T18:06:39;2.50;99.90
47921;DHT22;33686;48.770;9.186;2023-02-28T18:09:15;2.40;99.90
47921;DHT22;33686;48.770;9.186;2023-02-28T18:11:41;2.30;99.90
47921;DHT22;33686;48.770;9.186;2023-02-28T18:14:07;2.30;99.90
47921;DHT22;33686;48.770;9.186;2023-02-28T18:16:33;2.20;99.90
47921;DHT22;33686;48.770;9.186;2023-02-28T18:18:59;2.20;99.90
47921;DHT22;33686;48.770;9.186;2023-02-28T18:21:24;2.20;99.90
47921;DHT22;33686;48.770;9.186;2023-02-28T18:23:50;2.20;99.90
47921;DHT22;33686;48.770;9.186;2023-02-28T18:26:17;2.10;99.90
47921;DHT22;33686;48.770;9.186;2023-02-28T18:28:43;2.00;99.90
47921;DHT22;33686;48.770;9.186;2023-02-28T18:31:10;2.00;99.90
47921;DHT22;33686;48.770;9.186;2023-02-28T18:33:36;2.00;99.90
47921;DHT22;33686;48.770;9.186;2023-02-28T18:36:02;2.00;99.90
47921;DHT22;33686;48.770;9.186;2023-02-28T18:38:27;1.80;99.90
47921;DHT22;33686;48.770;9.186;2023-02-28T18:41:01;1.80;99.90
47921;DHT22;33686;48.770;9.186;2023-02-28T18:43:27;1.60;99.90
47921;DHT22;33686;48.770;9.186;2023-02-28T18:45:53;1.60;99.90
47921;DHT22;33686;48.770;9.186;2023-02-28T18:48:19;1.60;99.90
47921;DHT22;33686;48.770;9.186;2023-02-28T18:50:45;1.50;99.90
47921;DHT22;33686;48.770;9.186;2023-02-28T18:53:11;1.50;99.90
47921;DHT22;33686;48.770;9.186;2023-02-28T18:55:36;1.40;99.90
47921;DHT22;33686;48.770;9.186;2023-02-28T18:58:02;1.40;99.90
47921;DHT22;33686;48.770;9.186;2023-02-28T19:00:28;1.30;99.90
47921;DHT22;33686;48.770;9.186;2023-02-28T19:02:54;1.30;99.90
47921;DHT22;33686;48.770;9.186;2023-02-28T19:05:19;1.10;99.90
47921;DHT22;33686;48.770;9.186;2023-02-28T19:07:45;1.10;99.90
47921;DHT22;33686;48.770;9.186;2023-02-28T19:10:10;1.10;99.90
47921;DHT22;33686;48.770;9.186;2023-02-28T19:12:36;1.10;99.90
47921;DHT22;33686;48.770;9.186;2023-02-28T19:15:03;0.90;99.90
47921;DHT22;33686;48.770;9.186;2023-02-28T19:17:29;0.80;99.90
47921;DHT22;33686;48.770;9.186;2023-02-28T19:19:54;0.80;99.90
47921;DHT22;33686;48.770;9.186;2023-02-28T19:22:20;0.80;99.90
47921;DHT22;33686;48.770;9.186;2023-02-28T19:24:45;0.70;99.90
47921;DHT22;33686;48.770;9.186;2023-02-28T19:27:11;0.70;99.90
47921;DHT22;33686;48.770;9.186;2023-02-28T19:29:37;0.70;99.90
47921;DHT22;33686;48.770;9.186;2023-02-28T19:32:02;0.70;99.90
47921;DHT22;33686;48.770;9.186;2023-02-28T19:34:28;0.60;99.90
47921;DHT22;33686;48.770;9.186;2023-02-28T19:36:54;0.60;99.90
47921;DHT22;33686;48.770;9.186;2023-02-28T19:39:20;0.50;99.90
47921;DHT22;33686;48.770;9.186;2023-02-28T19:41:45;0.50;99.90
47921;DHT22;33686;48.770;9.186;2023-02-28T19:44:11;0.50;99.90
47921;DHT22;33686;48.770;9.186;2023-02-28T19:46:36;0.50;99.90
47921;DHT22;33686;48.770;9.186;2023-02-28T19:49:02;0.50;99.90
47921;DHT22;33686;48.770;9.186;2023-02-28T19:51:27;0.40;99.90
47921;DHT22;33686;48.770;9.186;2023-02-28T19:53:53;0.40;99.90
47921;DHT22;33686;48.770;9.186;2023-02-28T19:56:20;0.40;99.90
47921;DHT22;33686;48.770;9.186;2023-02-28T19:58:45;0.30;99.90
47921;DHT22;33686;48.770;9.186;2023-02-28T20:01:12;0.30;99.90
47921;DHT22;33686;48.770;9.186;2023-02-28T20:03:38;0.30;99.90
47921;DHT22;33686;48.770;9.186;2023-02-28T20:06:05;0.30;99.90
47921;DHT22;33686;48.770;9.186;2023-02-28T20:08:32;0.20;99.90
47921;DHT22;33686;48.770;9.186;2023-02-28T20:13:29;0.40;99.90
47921;DHT22;33686;48.770;9.186;2023-02-28T20:15:57;0.20;99.90
47921;DHT22;33686;48.770;9.186;2023-02-28T20:18:22;0.20;99.90
47921;DHT22;33686;48.770;9.186;2023-02-28T20:20:48;0.20;99.90
47921;DHT22;33686;48.770;9.186;2023-02-28T20:23:14;0.10;99.90
47921;DHT22;33686;48.770;9.186;2023-02-28T20:25:39;0.10;99.90
47921;DHT22;33686;48.770;9.186;2023-02-28T20:28:05;0.00;99.90
47921;DHT22;33686;48.770;9.186;2023-02-28T20:30:30;0.10;99.90
47921;DHT22;33686;48.770;9.186;2023-02-28T20:32:56;0.10;99.90
47921;DHT22;33686;48.770;9.186;2023-02-28T20:35:21;0.10;99.90
47921;DHT22;33686;48.770;9.186;2023-02-28T20:37:47;0.00;99.90
47921;DHT22;33686;48.770;9.186;2023-02-28T20:40:13;0.00;99.90
47921;DHT22;33686;48.770;9.186;2023-02-28T20:42:39;0.00;99.90
47921;DHT22;33686;48.770;9.186;2023-02-28T20:45:05;0.00;99.90
47921;DHT22;33686;48.770;9.186;2023-02-28T20:47:30;0.00;99.90
47921;DHT22;33686;48.770;9.186;2023-02-28T20:49:56;0.00;99.90
47921;DHT22;33686;48.770;9.186;2023-02-28T20:52:21;0.00;99.90
47921;DHT22;33686;48.770;9.186;2023-02-28T20:54:47;0.00;99.90
47921;DHT22;33686;48.770;9.186;2023-02-28T20:57:13;-0.10;99.90
47921;DHT22;33686;48.770;9.186;2023-02-28T20:59:38;-0.10;99.90
47921;DHT22;33686;48.770;9.186;2023-02-28T21:02:05;-0.20;99.90
47921;DHT22;33686;48.770;9.186;2023-02-28T21:04:31;-0.20;99.90
47921;DHT22;33686;48.770;9.186;2023-02-28T21:06:56;-0.20;99.90
47921;DHT22;33686;48.770;9.186;2023-02-28T21:09:22;-0.10;99.90
47921;DHT22;33686;48.770;9.186;2023-02-28T21:11:51;-0.20;99.90
47921;DHT22;33686;48.770;9.186;2023-02-28T21:14:17;-0.20;99.90
47921;DHT22;33686;48.770;9.186;2023-02-28T21:16:43;-0.30;99.90
47921;DHT22;33686;48.770;9.186;2023-02-28T21:19:09;-0.20;99.90
47921;DHT22;33686;48.770;9.186;2023-02-28T21:21:36;-0.30;99.90
47921;DHT22;33686;48.770;9.186;2023-02-28T21:24:03;-0.30;99.90
47921;DHT22;33686;48.770;9.186;2023-02-28T21:26:29;-0.30;99.90
47921;DHT22;33686;48.770;9.186;2023-02-28T21:28:55;-0.30;99.90
47921;DHT22;33686;48.770;9.186;2023-02-28T21:31:22;-0.30;99.90
47921;DHT22;33686;48.770;9.186;2023-02-28T21:33:50;-0.20;99.90
47921;DHT22;33686;48.770;9.186;2023-02-28T21:36:17;-0.30;99.90
47921;DHT22;33686;48.770;9.186;2023-02-28T21:38:44;-0.30;99.90
47921;DHT22;33686;48.770;9.186;2023-02-28T21:41:11;-0.30;99.90
47921;DHT22;33686;48.770;9.186;2023-02-28T21:43:37;-0.30;99.90
47921;DHT22;33686;48.770;9.186;2023-02-28T21:46:04;-0.40;99.90
47921;DHT22;33686;48.770;9.186;2023-02-28T21:48:30;-0.40;99.90
47921;DHT22;33686;48.770;9.186;2023-02-28T21:51:00;-0.30;99.90
47921;DHT22;33686;48.770;9.186;2023-02-28T21:53:27;-0.30;99.90
47921;DHT22;33686;48.770;9.186;2023-02-28T21:55:52;-0.30;99.90
47921;DHT22;33686;48.770;9.186;2023-02-28T21:58:18;-0.40;99.90
47921;DHT22;33686;48.770;9.186;2023-02-28T22:00:44;-0.40;99.90
47921;DHT22;33686;48.770;9.186;2023-02-28T22:03:10;-0.40;99.90
47921;DHT22;33686;48.770;9.186;2023-02-28T22:05:36;-0.30;99.90
47921;DHT22;33686;48.770;9.186;2023-02-28T22:08:01;-0.40;99.90
47921;DHT22;33686;48.770;9.186;2023-02-28T22:10:27;-0.40;99.90
47921;DHT22;33686;48.770;9.186;2023-02-28T22:12:52;-0.40;99.90
47921;DHT22;33686;48.770;9.186;2023-02-28T22:15:18;-0.50;99.90
47921;DHT22;33686;48.770;9.186;2023-02-28T22:17:44;-0.50;99.90
47921;DHT22;33686;48.770;9.186;2023-02-28T22:20:10;-0.40;99.90
47921;DHT22;33686;48.770;9.186;2023-02-28T22:22:37;-0.50;99.90
47921;DHT22;33686;48.770;9.186;2023-02-28T22:25:02;-0.50;99.90
47921;DHT22;33686;48.770;9.186;2023-02-28T22:27:28;-0.50;99.90
47921;DHT22;33686;48.770;9.186;2023-02-28T22:29:54;-0.50;99.90
47921;DHT22;33686;48.770;9.186;2023-02-28T22:32:20;-0.50;99.90
47921;DHT22;33686;48.770;9.186;2023-02-28T22:34:49;-0.40;99.90
47921;DHT22;33686;48.770;9.186;2023-02-28T22:37:15;-0.50;99.90
47921;DHT22;33686;48.770;9.186;2023-02-28T22:39:40;-0.50;99.90
47921;DHT22;33686;48.770;9.186;2023-02-28T22:42:06;-0.60;99.90
47921;DHT22;33686;48.770;9.186;2023-02-28T22:44:31;-0.60;99.90
47921;DHT22;33686;48.770;9.186;2023-02-28T22:46:57;-0.50;99.90
47921;DHT22;33686;48.770;9.186;2023-02-28T22:49:22;-0.60;99.90
47921;DHT22;33686;48.770;9.186;2023-02-28T22:51:49;-0.70;99.90
47921;DHT22;33686;48.770;9.186;2023-02-28T22:54:15;-0.60;99.90
47921;DHT22;33686;48.770;9.186;2023-02-28T22:56:41;-0.50;99.90
47921;DHT22;33686;48.770;9.186;2023-02-28T22:59:07;-0.50;99.90
